createdAt,value
2017-11-17T00:06:44.000Z,18.7
2017-11-17T00:16:44.000Z,18.7
2017-11-17T00:26:43.000Z,18.6
2017-11-17T00:36:43.000Z,18.6
2017-11-17T00:46:43.000Z,18.5
2017-11-17T00:56:43.000Z,18.6
2017-11-17T01:06:43.000Z,18.6
2017-11-17T01:16:44.000Z,18.7
2017-11-17T01:26:43.000Z,18.7
2017-11-17T01:36:43.000Z,18.6
2017-11-17T01:46:43.000Z,18.6
2017-11-17T01:56:43.000Z,18.7
2017-11-17T02:06:43.000Z,18.4
2017-11-17T02:16:43.000Z,18.5
2017-11-17T02:26:44.000Z,18.4
2017-11-17T02:36:43.000Z,18.3
2017-11-17T02:46:43.000Z,18.2
2017-11-17T02:56:43.000Z,18.2
2017-11-17T03:06:43.000Z,18.2
2017-11-17T03:16:43.000Z,18.2
2017-11-17T03:26:43.000Z,18.1
2017-11-17T03:36:43.000Z,18
2017-11-17T03:46:43.000Z,18
2017-11-17T03:56:43.000Z,17.8
2017-11-17T04:06:44.000Z,17.8
2017-11-17T04:16:44.000Z,17.7
2017-11-17T04:26:44.000Z,17.7
2017-11-17T04:36:44.000Z,17.5
2017-11-17T04:46:44.000Z,17.5
2017-11-17T04:56:44.000Z,17.5
2017-11-17T05:06:44.000Z,17.3
2017-11-17T05:16:44.000Z,17.2
2017-11-17T05:26:44.000Z,17.2
2017-11-17T05:36:44.000Z,17.2
2017-11-17T05:46:44.000Z,17.1
2017-11-17T05:56:44.000Z,16.9
2017-11-17T06:06:44.000Z,17
2017-11-17T06:16:45.000Z,16.9
2017-11-17T06:26:44.000Z,16.9
2017-11-17T06:36:44.000Z,16.7
2017-11-17T06:46:44.000Z,17
2017-11-17T06:56:44.000Z,17.1
2017-11-17T07:06:44.000Z,18.4
2017-11-17T07:16:44.000Z,19.1
2017-11-17T07:26:44.000Z,19.4
2017-11-17T07:36:44.000Z,19.7
2017-11-17T07:46:44.000Z,20
2017-11-17T07:56:44.000Z,20.5
2017-11-17T08:06:44.000Z,20.6
2017-11-17T08:16:44.000Z,20.4
2017-11-17T08:26:44.000Z,20.3
2017-11-17T08:36:44.000Z,20.3
2017-11-17T08:46:44.000Z,20.3
2017-11-17T08:56:44.000Z,20.3
2017-11-17T09:06:44.000Z,20.3
2017-11-17T09:16:44.000Z,20.4
2017-11-17T09:26:44.000Z,20.3
2017-11-17T09:36:44.000Z,20.5
2017-11-17T09:46:44.000Z,20.5
2017-11-17T09:56:44.000Z,20.5
2017-11-17T10:06:44.000Z,20.5
2017-11-17T10:16:44.000Z,20.6
2017-11-17T10:26:44.000Z,20.6
2017-11-17T10:36:44.000Z,20.7
2017-11-17T10:46:44.000Z,20.8
2017-11-17T10:56:45.000Z,20.8
2017-11-17T11:06:45.000Z,20.8
2017-11-17T11:16:45.000Z,20.7
2017-11-17T11:26:45.000Z,20.7
2017-11-17T11:36:45.000Z,20.7
2017-11-17T11:46:45.000Z,21
2017-11-17T11:56:45.000Z,21
2017-11-17T12:06:45.000Z,21.3
2017-11-17T12:16:45.000Z,21.1
2017-11-17T12:26:46.000Z,21.2
2017-11-17T12:36:45.000Z,21.2
2017-11-17T12:46:45.000Z,21.1
2017-11-17T12:56:45.000Z,21.1
2017-11-17T13:06:45.000Z,21.2
2017-11-17T13:16:45.000Z,21.1
2017-11-17T13:26:45.000Z,21.3
2017-11-17T13:36:47.000Z,21.1
2017-11-17T13:56:45.000Z,21.2
2017-11-17T14:06:45.000Z,21.2
2017-11-17T14:16:45.000Z,21.3
2017-11-17T14:26:45.000Z,21.2
2017-11-17T14:36:45.000Z,21.3
2017-11-17T14:46:45.000Z,21.2
2017-11-17T14:56:45.000Z,21.2
2017-11-17T15:06:45.000Z,21.2
2017-11-17T15:16:45.000Z,21.3
2017-11-17T15:26:45.000Z,21.2
2017-11-17T15:36:45.000Z,21.2
2017-11-17T15:46:45.000Z,21.3
2017-11-17T15:56:45.000Z,21.2
2017-11-17T16:16:45.000Z,21.2
2017-11-17T16:26:45.000Z,21.2
2017-11-17T16:36:45.000Z,21
2017-11-17T16:46:45.000Z,21
2017-11-17T16:56:48.000Z,21
2017-11-17T17:06:45.000Z,21.2
2017-11-17T17:16:45.000Z,21.2
2017-11-17T17:26:45.000Z,21.2
2017-11-17T17:36:45.000Z,21.2
2017-11-17T17:46:45.000Z,21.2
2017-11-17T17:56:46.000Z,21.2
2017-11-17T18:06:46.000Z,21.2
2017-11-17T18:16:46.000Z,21.2
2017-11-17T18:26:46.000Z,21.1
2017-11-17T18:36:46.000Z,21.2
2017-11-17T18:46:46.000Z,21.2
2017-11-17T18:56:46.000Z,21.2
2017-11-17T19:06:46.000Z,21.2
2017-11-17T19:26:46.000Z,21.2
2017-11-17T19:36:46.000Z,21.2
2017-11-17T19:46:46.000Z,21.2
2017-11-17T19:56:46.000Z,21.3
2017-11-17T20:06:46.000Z,21.3
2017-11-17T20:16:46.000Z,21.2
2017-11-17T20:26:46.000Z,21.2
2017-11-17T20:36:46.000Z,21.3
2017-11-17T20:46:46.000Z,21.1
2017-11-17T20:56:46.000Z,21.1
2017-11-17T21:06:46.000Z,21.3
2017-11-17T21:26:50.000Z,21.3
2017-11-17T21:36:46.000Z,21.4
2017-11-17T21:46:46.000Z,21.3
2017-11-17T21:56:46.000Z,21.3
2017-11-17T22:06:46.000Z,21.3
2017-11-17T22:16:46.000Z,21.1
2017-11-17T22:26:46.000Z,21.3
2017-11-17T22:36:46.000Z,21.2
2017-11-17T22:46:46.000Z,21.3
2017-11-17T22:56:46.000Z,19.6
2017-11-17T23:06:46.000Z,18.5
2017-11-17T23:16:46.000Z,18.5
2017-11-17T23:26:46.000Z,18.1
2017-11-17T23:36:46.000Z,17.9
2017-11-17T23:46:46.000Z,17.8
2017-11-17T23:56:46.000Z,17.5
